KUCY/UCY METAR and TAF weather

Enter ICAO airport designator
Station Type Date Time Source
KUCY METAR 2019/04/24 15:55 UTC NOAA

KUCY 241555Z AUTO 23007KT 10SM CLR 24/18 A2993 RMK A01


Station Type Date Time Source
KUCY Decoded METAR 2019/04/24 15:55 UTC NOAA

Station name not available
Apr 24, 2019 - 11:55 AM EDT / 2019.04.24 1555 UTC
Wind: from the SW (230 degrees) at 8 MPH (7 KT):0
Visibility: 10 mile(s):0
Sky conditions: clear
Temperature: 75 F (24 C)
Dew Point: 64 F (18 C)
Relative Humidity: 69%
Pressure (altimeter): 29.93 in. Hg (1013 hPa)
ob: KUCY 241555Z AUTO 23007KT 10SM CLR 24/18 A2993 RMK A01
cycle: 16

Station Type Date Time Source
KUCY TAF UTC NOAA

Error!

Example: see airport list